createdAt,value
2019-03-09T00:00:30.362Z,-956.80
2019-03-09T00:01:30.631Z,-963.11
2019-03-09T00:02:30.920Z,-954.40
2019-03-09T00:03:31.220Z,-958.85
2019-03-09T00:04:31.496Z,-955.07
2019-03-09T00:05:31.813Z,-958.89
2019-03-09T00:06:32.044Z,-949.18
2019-03-09T00:07:32.370Z,-960.37
2019-03-09T00:08:32.634Z,-958.58
2019-03-09T00:09:32.908Z,-954.31
2019-03-09T00:10:33.238Z,-955.11
2019-03-09T00:11:33.470Z,-957.42
2019-03-09T00:12:33.743Z,-955.19
2019-03-09T00:13:34.069Z,-947.73
2019-03-09T00:14:34.336Z,-961.61
2019-03-09T00:15:34.730Z,-957.45
2019-03-09T00:16:34.956Z,-955.80
2019-03-09T00:17:35.197Z,-961.37
2019-03-09T00:18:35.504Z,-961.38
2019-03-09T00:19:35.772Z,-959.29
2019-03-09T00:20:36.137Z,-964.83
2019-03-09T00:21:36.345Z,-955.88
2019-03-09T00:22:36.609Z,-958.59
2019-03-09T00:23:36.944Z,-961.27
2019-03-09T00:24:37.306Z,-960.01
2019-03-09T00:25:37.536Z,-951.60
2019-03-09T00:26:37.756Z,-958.18
2019-03-09T00:27:38.026Z,-957.14
2019-03-09T00:28:38.569Z,-959.05
2019-03-09T00:29:38.859Z,-961.49
2019-03-09T00:30:39.198Z,-959.82
2019-03-09T00:31:39.433Z,-959.38
2019-03-09T00:32:39.824Z,-967.22
2019-03-09T00:33:44.129Z,-909.99
2019-03-09T00:34:40.274Z,-965.62
2019-03-09T00:35:40.624Z,-964.38
2019-03-09T00:36:40.847Z,-962.72
2019-03-09T00:37:41.145Z,-968.71
2019-03-09T00:38:41.450Z,-964.91
2019-03-09T00:39:41.700Z,-959.12
2019-03-09T00:40:42.034Z,-965.17
2019-03-09T00:41:42.258Z,-964.42
2019-03-09T00:42:42.557Z,-966.59
2019-03-09T00:43:42.863Z,-967.35
2019-03-09T00:44:43.125Z,-967.43
2019-03-09T00:45:43.427Z,-968.20
2019-03-09T00:46:43.690Z,-964.13
2019-03-09T00:47:43.990Z,-965.34
2019-03-09T00:48:44.330Z,-966.50
2019-03-09T00:49:44.558Z,-969.65
2019-03-09T00:50:44.876Z,-967.87
2019-03-09T00:51:45.152Z,-972.19
2019-03-09T00:52:45.449Z,-968.06
2019-03-09T00:53:45.752Z,-972.40
2019-03-09T00:54:46.019Z,-965.47
2019-03-09T00:55:46.326Z,-966.08
2019-03-09T00:56:46.602Z,-966.75
2019-03-09T00:57:47.015Z,-965.91
2019-03-09T00:58:47.228Z,-966.89
2019-03-09T00:59:47.492Z,-965.37
2019-03-09T01:00:47.778Z,-964.66
2019-03-09T01:01:48.061Z,-964.55
2019-03-09T01:02:48.346Z,-967.92
2019-03-09T01:03:48.649Z,-967.31
2019-03-09T01:04:48.914Z,-962.84
2019-03-09T01:05:49.331Z,-966.05
2019-03-09T01:06:49.494Z,-961.49
2019-03-09T01:07:49.775Z,-965.79
2019-03-09T01:08:50.099Z,-965.20
2019-03-09T01:09:50.354Z,-966.49
2019-03-09T01:10:50.650Z,-962.47
2019-03-09T01:11:50.954Z,-957.88
2019-03-09T01:12:51.202Z,-959.74
2019-03-09T01:13:51.575Z,-962.45
2019-03-09T01:14:51.787Z,-965.31
2019-03-09T01:15:52.074Z,-967.72
2019-03-09T01:16:52.386Z,-965.40
2019-03-09T01:17:52.644Z,-966.08
2019-03-09T01:18:52.956Z,-963.01
2019-03-09T01:19:53.218Z,-960.26
2019-03-09T01:20:53.496Z,-963.10
2019-03-09T01:21:53.866Z,-966.56
2019-03-09T01:22:54.046Z,-964.03
2019-03-09T01:23:54.336Z,-961.97
2019-03-09T01:24:54.603Z,-963.87
2019-03-09T01:25:54.906Z,-961.19
2019-03-09T01:26:55.212Z,-967.25
2019-03-09T01:27:55.478Z,-964.47
2019-03-09T01:28:55.785Z,-967.21
2019-03-09T01:29:56.081Z,-960.15
2019-03-09T01:30:56.365Z,-967.10
2019-03-09T01:31:56.667Z,-958.57
2019-03-09T01:32:56.900Z,-964.72
2019-03-09T01:33:57.203Z,-964.29
2019-03-09T01:34:57.472Z,-966.49
2019-03-09T01:35:57.738Z,-963.63
2019-03-09T01:36:58.078Z,-962.57
2019-03-09T01:37:58.339Z,-963.41
2019-03-09T01:38:58.747Z,-961.24
2019-03-09T01:40:03.698Z,-960.77
2019-03-09T01:40:59.167Z,-966.32
2019-03-09T01:41:59.501Z,-962.70
2019-03-09T01:42:59.750Z,-957.90
2019-03-09T01:44:00.049Z,-959.16
2019-03-09T01:45:00.362Z,-966.32
2019-03-09T01:46:00.647Z,-957.52
2019-03-09T01:47:01.053Z,-961.72
2019-03-09T01:48:01.199Z,-964.96
2019-03-09T01:49:01.476Z,-964.29
2019-03-09T01:50:01.741Z,-963.09
2019-03-09T01:51:02.026Z,-968.27
2019-03-09T01:52:02.309Z,-963.25
2019-03-09T01:53:02.624Z,-964.86
2019-03-09T01:54:02.916Z,-969.39
2019-03-09T01:55:03.236Z,-962.42
2019-03-09T01:56:03.444Z,-966.18
2019-03-09T01:57:03.759Z,-962.63
2019-03-09T01:58:04.017Z,-963.85
2019-03-09T01:59:04.322Z,-961.29
2019-03-09T02:00:04.597Z,-961.99
2019-03-09T02:01:04.874Z,-964.17
2019-03-09T02:02:05.179Z,-963.61
2019-03-09T02:03:05.483Z,-963.65
2019-03-09T02:04:05.686Z,-960.56
2019-03-09T02:05:06.003Z,-960.19
2019-03-09T02:06:06.294Z,-965.37
2019-03-09T02:07:06.820Z,-965.04
2019-03-09T02:08:06.893Z,-966.33
2019-03-09T02:09:07.145Z,-953.64
2019-03-09T02:10:07.431Z,-962.03
2019-03-09T02:11:07.771Z,-958.79
2019-03-09T02:12:08.147Z,-961.01
2019-03-09T02:13:08.329Z,-958.92
2019-03-09T02:14:08.603Z,-955.62
2019-03-09T02:15:08.889Z,-959.53
2019-03-09T02:16:09.190Z,-958.44
2019-03-09T02:17:09.509Z,-957.13
2019-03-09T02:18:09.804Z,-954.60
2019-03-09T02:19:10.062Z,-960.80
2019-03-09T02:20:10.485Z,-958.53
2019-03-09T02:21:10.618Z,-959.23
2019-03-09T02:22:10.921Z,-962.72
2019-03-09T02:23:11.202Z,-956.08
2019-03-09T02:24:11.474Z,-955.68
2019-03-09T02:25:11.786Z,-952.66
2019-03-09T02:26:12.039Z,-950.68
2019-03-09T02:27:12.354Z,-955.18
2019-03-09T02:28:12.707Z,-954.69
2019-03-09T02:29:12.890Z,-950.16
2019-03-09T02:30:13.197Z,-946.79
2019-03-09T02:31:13.460Z,-947.85
2019-03-09T02:32:13.777Z,-898.75
2019-03-09T02:33:14.044Z,-947.54
2019-03-09T02:34:14.324Z,-945.39
2019-03-09T02:35:14.620Z,-944.90
2019-03-09T02:36:14.963Z,-949.11
2019-03-09T02:37:15.169Z,-950.27
2019-03-09T02:38:15.439Z,-947.49
2019-03-09T02:39:15.727Z,-950.38
2019-03-09T02:40:16.033Z,-954.74
2019-03-09T02:41:16.298Z,-953.87
2019-03-09T02:42:16.614Z,-956.43
2019-03-09T02:43:16.880Z,-953.43
2019-03-09T02:44:17.189Z,-958.54
2019-03-09T02:45:17.497Z,-959.07
2019-03-09T02:46:17.728Z,-958.57
2019-03-09T02:47:18.050Z,-961.29
2019-03-09T02:48:18.304Z,-961.89
2019-03-09T02:49:18.573Z,-962.51
2019-03-09T02:50:18.880Z,-959.51
2019-03-09T02:51:19.148Z,-958.09
2019-03-09T02:52:19.457Z,-961.94
2019-03-09T02:53:19.847Z,-964.77
2019-03-09T02:54:19.988Z,-961.81
2019-03-09T02:55:20.301Z,-963.78
2019-03-09T02:56:20.567Z,-960.16
2019-03-09T02:57:20.865Z,-957.07
2019-03-09T02:58:21.155Z,-961.79
2019-03-09T02:59:21.411Z,-961.83
2019-03-09T03:00:21.706Z,-959.08
2019-03-09T03:01:22.134Z,-959.17
2019-03-09T03:02:22.286Z,-964.30
2019-03-09T03:03:22.575Z,-963.90
2019-03-09T03:04:22.862Z,-961.51
2019-03-09T03:05:23.127Z,-965.26
2019-03-09T03:06:23.407Z,-957.86
2019-03-09T03:07:23.695Z,-960.87
2019-03-09T03:08:23.985Z,-961.30
2019-03-09T03:09:24.305Z,-963.15
2019-03-09T03:10:24.551Z,-959.95
2019-03-09T03:11:24.801Z,-960.77
2019-03-09T03:12:25.105Z,-958.94
2019-03-09T03:13:25.422Z,-960.46
2019-03-09T03:14:25.687Z,-962.88
2019-03-09T03:15:25.993Z,-960.09
2019-03-09T03:16:26.253Z,-959.03
2019-03-09T03:17:26.563Z,-961.62
2019-03-09T03:18:26.847Z,-957.18
2019-03-09T03:19:27.129Z,-957.20
2019-03-09T03:20:27.429Z,-966.04
2019-03-09T03:21:27.697Z,-962.42
2019-03-09T03:22:27.968Z,-964.85
2019-03-09T03:23:28.278Z,-958.31
2019-03-09T03:24:28.556Z,-967.27
2019-03-09T03:25:28.869Z,-959.58
2019-03-09T03:26:29.189Z,-962.52
2019-03-09T03:27:29.388Z,-965.43
2019-03-09T03:28:29.716Z,-957.02
2019-03-09T03:29:29.989Z,-957.63
2019-03-09T03:30:30.298Z,-962.93
2019-03-09T03:31:30.559Z,-963.25
2019-03-09T03:32:30.843Z,-962.31
2019-03-09T03:33:31.153Z,-908.54
2019-03-09T03:34:31.503Z,-913.27
2019-03-09T03:35:31.707Z,-910.61
2019-03-09T03:36:31.996Z,-911.09
2019-03-09T03:37:32.263Z,-911.12
2019-03-09T03:38:32.557Z,-910.34
2019-03-09T03:39:32.818Z,-915.63
2019-03-09T03:40:33.136Z,-910.95
2019-03-09T03:41:33.402Z,-907.31
2019-03-09T03:42:33.796Z,-907.11
2019-03-09T03:43:34.224Z,-908.74
2019-03-09T03:44:34.227Z,-914.29
2019-03-09T03:45:34.533Z,-909.68
2019-03-09T03:46:34.815Z,-911.48
2019-03-09T03:47:35.103Z,-908.13
2019-03-09T03:48:35.419Z,-912.29
2019-03-09T03:49:35.671Z,-907.96
2019-03-09T03:50:36.009Z,-906.03
2019-03-09T03:51:36.219Z,-907.07
2019-03-09T03:52:36.524Z,-909.42
2019-03-09T03:53:36.832Z,-913.90
2019-03-09T03:54:37.092Z,-906.93
2019-03-09T03:55:37.402Z,-910.78
2019-03-09T03:56:37.674Z,-911.94
2019-03-09T03:57:37.941Z,-909.79
2019-03-09T03:58:38.301Z,-912.76
2019-03-09T03:59:38.637Z,-910.98
2019-03-09T04:00:38.828Z,-907.56
2019-03-09T04:01:39.096Z,-908.35
2019-03-09T04:02:39.376Z,-907.15
2019-03-09T04:03:39.700Z,-907.40
2019-03-09T04:04:39.955Z,-909.00
2019-03-09T04:05:40.260Z,-902.84
2019-03-09T04:06:40.541Z,-905.79
2019-03-09T04:07:40.932Z,-908.63
2019-03-09T04:08:41.126Z,-907.21
2019-03-09T04:09:41.405Z,-910.06
2019-03-09T04:10:41.686Z,-912.96
2019-03-09T04:11:41.949Z,-909.25
2019-03-09T04:12:42.217Z,-909.78
2019-03-09T04:13:42.554Z,-903.14
2019-03-09T04:14:42.854Z,-909.03
2019-03-09T04:15:43.214Z,-906.97
2019-03-09T04:16:43.370Z,-912.21
2019-03-09T04:17:43.689Z,-912.29
2019-03-09T04:18:43.945Z,-913.72
2019-03-09T04:19:44.256Z,-907.14
2019-03-09T04:20:44.511Z,-906.97
2019-03-09T04:21:44.813Z,-908.19
2019-03-09T04:22:45.102Z,-908.25
2019-03-09T04:23:45.435Z,-912.87
2019-03-09T04:24:45.645Z,-907.37
2019-03-09T04:25:45.943Z,-912.24
2019-03-09T04:26:46.243Z,-893.32
2019-03-09T04:27:46.513Z,-904.12
2019-03-09T04:28:46.835Z,-910.83
2019-03-09T04:29:47.076Z,-906.83
2019-03-09T04:30:47.350Z,-910.90
2019-03-09T04:31:47.692Z,-908.71
2019-03-09T04:32:47.978Z,-916.40
2019-03-09T04:33:48.299Z,-911.10
2019-03-09T04:34:48.558Z,-910.52
2019-03-09T04:35:48.829Z,-907.42
2019-03-09T04:36:49.153Z,-911.15
2019-03-09T04:37:49.430Z,-909.52
2019-03-09T04:38:49.740Z,-911.71
2019-03-09T04:39:50.032Z,-911.43
2019-03-09T04:40:50.408Z,-916.40
2019-03-09T04:41:50.587Z,-912.12
2019-03-09T04:42:50.854Z,-915.04
2019-03-09T04:43:51.187Z,-911.87
2019-03-09T04:44:51.454Z,-918.28
2019-03-09T04:45:51.708Z,-910.29
2019-03-09T04:46:51.995Z,-917.16
2019-03-09T04:47:52.257Z,-915.71
2019-03-09T04:48:52.712Z,-915.45
2019-03-09T04:49:52.872Z,-912.80
2019-03-09T04:50:53.134Z,-911.82
2019-03-09T04:51:53.425Z,-909.74
2019-03-09T04:52:53.707Z,-909.81
2019-03-09T04:53:54.028Z,-910.31
2019-03-09T04:54:54.323Z,-912.76
2019-03-09T04:55:54.581Z,-914.71
2019-03-09T04:56:54.925Z,-918.15
2019-03-09T04:57:55.116Z,-913.52
2019-03-09T04:58:55.438Z,-913.87
2019-03-09T04:59:55.716Z,-915.95
2019-03-09T05:00:55.991Z,-914.54
2019-03-09T05:01:56.295Z,-906.87
2019-03-09T05:02:56.563Z,-915.74
2019-03-09T05:03:56.857Z,-915.19
2019-03-09T05:04:58.840Z,-911.95
2019-03-09T05:05:57.409Z,-913.28
2019-03-09T05:06:57.720Z,-912.74
2019-03-09T05:08:02.254Z,-908.83
2019-03-09T05:08:58.294Z,-907.81
2019-03-09T05:09:58.537Z,-906.98
2019-03-09T05:10:58.845Z,-910.28
2019-03-09T05:11:59.167Z,-910.73
2019-03-09T05:12:59.457Z,-912.82
2019-03-09T05:13:59.765Z,-909.75
2019-03-09T05:14:59.999Z,-904.94
2019-03-09T05:16:00.291Z,-907.52
2019-03-09T05:17:00.607Z,-907.29
2019-03-09T05:18:00.875Z,-908.52
2019-03-09T05:19:01.185Z,-912.64
2019-03-09T05:20:01.446Z,-905.51
2019-03-09T05:21:01.834Z,-907.46
2019-03-09T05:22:02.149Z,-912.25
2019-03-09T05:23:02.296Z,-913.07
2019-03-09T05:24:02.601Z,-913.62
2019-03-09T05:25:02.860Z,-908.66
2019-03-09T05:26:03.127Z,-917.91
2019-03-09T05:27:03.423Z,-910.62
2019-03-09T05:28:03.704Z,-909.38
2019-03-09T05:29:04.058Z,-906.11
2019-03-09T05:30:04.380Z,-909.70
2019-03-09T05:31:04.544Z,-908.25
2019-03-09T05:32:04.860Z,-915.37
2019-03-09T05:33:05.142Z,-912.71
2019-03-09T05:34:05.456Z,-915.10
2019-03-09T05:35:05.726Z,-904.00
2019-03-09T05:36:05.996Z,-914.10
2019-03-09T05:37:06.298Z,-912.12
2019-03-09T05:38:06.598Z,-909.66
2019-03-09T05:39:06.855Z,-908.87
2019-03-09T05:40:07.124Z,-908.16
2019-03-09T05:41:07.405Z,-911.16
2019-03-09T05:42:07.710Z,-909.92
2019-03-09T05:43:07.974Z,-910.55
2019-03-09T05:44:08.301Z,-912.99
2019-03-09T05:45:08.594Z,-914.42
2019-03-09T05:46:08.879Z,-913.15
2019-03-09T05:47:09.130Z,-902.86
2019-03-09T05:48:09.410Z,-914.70
2019-03-09T05:49:09.683Z,-911.10
2019-03-09T05:50:10.001Z,-909.78
2019-03-09T05:51:10.296Z,-910.94
2019-03-09T05:52:10.596Z,-910.23
2019-03-09T05:53:10.862Z,-907.86
2019-03-09T05:54:11.170Z,-908.54
2019-03-09T05:55:11.577Z,-908.46
2019-03-09T05:56:11.719Z,-908.29
2019-03-09T05:57:12.014Z,-902.09
2019-03-09T05:58:12.285Z,-906.09
2019-03-09T05:59:12.565Z,-911.49
2019-03-09T06:00:12.881Z,-914.73
2019-03-09T06:01:13.134Z,-895.56
2019-03-09T06:02:13.452Z,-908.86
2019-03-09T06:03:13.835Z,-901.54
2019-03-09T06:04:13.990Z,-913.32
2019-03-09T06:05:14.294Z,-908.59
2019-03-09T06:06:14.567Z,-907.90
2019-03-09T06:07:14.872Z,-909.09
2019-03-09T06:08:15.155Z,-901.08
2019-03-09T06:09:15.434Z,-896.22
2019-03-09T06:10:15.805Z,-899.63
2019-03-09T06:11:15.999Z,-896.30
2019-03-09T06:12:16.288Z,-910.97
2019-03-09T06:13:16.559Z,-904.82
2019-03-09T06:14:16.840Z,-905.70
2019-03-09T06:15:17.177Z,-907.43
2019-03-09T06:16:17.389Z,-902.45
2019-03-09T06:17:17.712Z,-907.31
2019-03-09T06:18:17.997Z,-909.23
2019-03-09T06:19:18.336Z,-908.49
2019-03-09T06:20:18.573Z,-902.71
2019-03-09T06:21:18.831Z,-904.23
2019-03-09T06:22:19.118Z,-905.96
2019-03-09T06:23:19.402Z,-902.91
2019-03-09T06:24:19.688Z,-905.48
2019-03-09T06:25:20.081Z,-903.37
2019-03-09T06:26:20.262Z,-906.14
2019-03-09T06:27:20.584Z,-904.24
2019-03-09T06:28:20.858Z,-900.40
2019-03-09T06:29:21.114Z,-906.68
2019-03-09T06:30:21.417Z,-908.57
2019-03-09T06:31:21.704Z,-907.91
2019-03-09T06:32:21.984Z,-910.04
2019-03-09T06:34:16.373Z,-752.36
2019-03-09T06:35:16.678Z,-905.55
2019-03-09T06:36:16.993Z,-906.24
2019-03-09T06:37:17.209Z,-904.10
2019-03-09T06:38:17.540Z,-904.55
2019-03-09T06:39:17.789Z,-909.91
2019-03-09T06:40:18.108Z,-910.83
2019-03-09T06:41:18.365Z,-913.62
2019-03-09T06:42:18.650Z,-907.67
2019-03-09T06:43:18.936Z,-905.77
2019-03-09T06:44:19.218Z,-905.79
2019-03-09T06:45:19.633Z,-911.36
2019-03-09T06:46:19.829Z,-907.99
2019-03-09T06:47:20.089Z,-907.68
2019-03-09T06:48:20.376Z,-907.46
2019-03-09T06:49:20.667Z,-902.67
2019-03-09T06:50:20.967Z,-905.80
2019-03-09T06:51:21.220Z,-900.88
2019-03-09T06:52:21.505Z,-905.65
2019-03-09T06:53:21.918Z,-905.05
2019-03-09T06:54:22.078Z,-905.84
2019-03-09T06:55:22.591Z,-907.31
2019-03-09T06:56:22.681Z,-908.16
2019-03-09T06:57:22.934Z,-904.79
2019-03-09T06:58:23.235Z,-902.81
2019-03-09T06:59:23.486Z,-905.51
2019-03-09T07:00:24.042Z,-904.72
2019-03-09T07:01:24.129Z,-906.32
2019-03-09T07:02:24.337Z,-907.20
2019-03-09T07:03:24.646Z,-903.30
2019-03-09T07:04:24.912Z,-903.64
2019-03-09T07:05:25.202Z,-900.65
2019-03-09T07:06:25.495Z,-904.63
2019-03-09T07:07:25.780Z,-904.38
2019-03-09T07:08:26.086Z,-906.08
2019-03-09T07:09:26.405Z,-905.03
2019-03-09T07:10:26.606Z,-904.50
2019-03-09T07:11:26.887Z,-906.16
2019-03-09T07:12:27.187Z,-900.84
2019-03-09T07:13:27.488Z,-906.65
2019-03-09T07:14:27.756Z,-900.99
2019-03-09T07:15:28.081Z,-901.12
2019-03-09T07:16:28.345Z,-899.30
2019-03-09T07:17:28.626Z,-895.69
2019-03-09T07:18:28.987Z,-899.18
2019-03-09T07:19:29.190Z,-897.14
2019-03-09T07:20:29.476Z,-899.82
2019-03-09T07:21:29.783Z,-899.43
2019-03-09T07:22:30.037Z,-896.00
2019-03-09T07:23:30.358Z,-896.21
2019-03-09T07:24:30.625Z,-900.28
2019-03-09T07:25:30.904Z,-895.05
2019-03-09T07:26:31.345Z,-894.42
2019-03-09T07:27:31.473Z,-892.83
2019-03-09T07:28:31.787Z,-901.09
2019-03-09T07:29:32.064Z,-901.00
2019-03-09T07:30:32.350Z,-896.87
2019-03-09T07:31:32.662Z,-903.65
2019-03-09T07:32:32.927Z,-903.73
2019-03-09T07:33:33.197Z,-903.52
2019-03-09T07:34:33.588Z,-898.85
2019-03-09T07:35:33.759Z,-902.38
2019-03-09T07:36:34.074Z,-897.63
2019-03-09T07:37:34.330Z,-902.34
2019-03-09T07:38:34.625Z,-905.41
2019-03-09T07:39:34.885Z,-899.56
2019-03-09T07:40:35.186Z,-908.00
2019-03-09T07:41:35.502Z,-900.54
2019-03-09T07:42:35.795Z,-905.15
2019-03-09T07:43:36.041Z,-906.62
2019-03-09T07:44:36.287Z,-907.50
2019-03-09T07:45:36.587Z,-909.02
2019-03-09T07:46:36.911Z,-907.08
2019-03-09T07:47:37.167Z,-911.86
2019-03-09T07:48:37.466Z,-908.95
2019-03-09T07:49:37.744Z,-909.30
2019-03-09T07:50:38.029Z,-911.51
2019-03-09T07:51:38.372Z,-909.50
2019-03-09T07:52:38.593Z,-902.33
2019-03-09T07:53:38.897Z,-903.68
2019-03-09T07:54:39.162Z,-909.80
2019-03-09T07:55:39.429Z,-910.21
2019-03-09T07:56:39.755Z,-911.03
2019-03-09T07:57:40.014Z,-903.45
2019-03-09T07:58:40.342Z,-910.32
2019-03-09T07:59:40.668Z,-908.37
2019-03-09T08:00:40.853Z,-911.50
2019-03-09T08:01:41.203Z,-910.21
2019-03-09T08:02:41.433Z,-907.02
2019-03-09T08:03:41.730Z,-909.62
2019-03-09T08:04:42.003Z,-908.69
2019-03-09T08:05:42.288Z,-909.95
2019-03-09T08:06:42.610Z,-908.17
2019-03-09T08:07:42.963Z,-912.63
2019-03-09T08:08:43.149Z,-908.47
2019-03-09T08:09:43.419Z,-910.66
2019-03-09T08:10:43.709Z,-902.94
2019-03-09T08:11:43.995Z,-905.29
2019-03-09T08:12:44.281Z,-905.26
2019-03-09T08:13:44.571Z,-905.20
2019-03-09T08:14:44.859Z,-905.77
2019-03-09T08:15:45.174Z,-903.88
2019-03-09T08:16:45.431Z,-905.26
2019-03-09T08:17:45.681Z,-908.42
2019-03-09T08:18:45.988Z,-914.11
2019-03-09T08:19:46.285Z,-909.21
2019-03-09T08:20:46.562Z,-907.53
2019-03-09T08:21:46.877Z,-905.35
2019-03-09T08:22:47.150Z,-900.88
2019-03-09T08:23:47.434Z,-904.51
2019-03-09T08:24:47.756Z,-908.49
2019-03-09T08:25:48.035Z,-914.14
2019-03-09T08:26:48.344Z,-964.24
2019-03-09T08:27:48.614Z,-961.07
2019-03-09T08:28:48.861Z,-962.15
2019-03-09T08:29:49.153Z,-968.21
2019-03-09T08:30:49.436Z,-965.97
2019-03-09T08:31:49.742Z,-956.88
2019-03-09T08:32:50.169Z,-957.54
2019-03-09T08:33:50.276Z,-959.72
2019-03-09T08:34:50.581Z,-962.40
2019-03-09T08:35:50.863Z,-955.05
2019-03-09T08:36:51.163Z,-966.45
2019-03-09T08:37:51.454Z,-959.27
2019-03-09T08:38:51.700Z,-961.38
2019-03-09T08:39:51.984Z,-959.45
2019-03-09T08:40:52.433Z,-955.93
2019-03-09T08:41:52.555Z,-970.37
2019-03-09T08:42:52.869Z,-970.05
2019-03-09T08:43:53.104Z,-962.32
2019-03-09T08:44:53.397Z,-966.09
2019-03-09T08:45:53.664Z,-960.59
2019-03-09T08:46:53.971Z,-960.16
2019-03-09T08:47:54.281Z,-966.17
2019-03-09T08:48:54.570Z,-964.53
2019-03-09T08:49:54.806Z,-967.05
2019-03-09T08:50:55.077Z,-953.94
2019-03-09T08:51:55.370Z,-960.11
2019-03-09T08:52:55.703Z,-966.64
2019-03-09T08:53:55.969Z,-970.81
2019-03-09T08:54:56.230Z,-966.28
2019-03-09T08:55:56.493Z,-961.03
2019-03-09T08:56:56.834Z,-965.13
2019-03-09T08:57:57.052Z,-963.67
2019-03-09T08:58:57.355Z,-958.19
2019-03-09T08:59:57.736Z,-960.80
2019-03-09T09:00:57.939Z,-964.75
2019-03-09T09:01:58.233Z,-960.56
2019-03-09T09:02:58.488Z,-964.64
2019-03-09T09:03:58.762Z,-970.65
2019-03-09T09:04:59.143Z,-964.78
2019-03-09T09:05:59.454Z,-963.46
2019-03-09T09:07:06.232Z,-960.71
2019-03-09T09:07:59.935Z,-964.21
2019-03-09T09:09:00.257Z,-958.87
2019-03-09T09:10:00.486Z,-961.41
2019-03-09T09:11:00.762Z,-960.34
2019-03-09T09:12:01.108Z,-956.14
2019-03-09T09:13:01.368Z,-955.88
2019-03-09T09:14:01.715Z,-968.99
2019-03-09T09:15:01.908Z,-964.56
2019-03-09T09:16:02.187Z,-951.40
2019-03-09T09:17:02.485Z,-954.55
2019-03-09T09:18:02.767Z,-956.26
2019-03-09T09:19:03.053Z,-957.15
2019-03-09T09:20:03.340Z,-958.46
2019-03-09T09:21:03.597Z,-967.31
2019-03-09T09:22:03.957Z,-958.34
2019-03-09T09:23:04.180Z,-957.47
2019-03-09T09:24:04.424Z,-966.93
2019-03-09T09:25:04.796Z,-964.88
2019-03-09T09:26:05.003Z,-962.45
2019-03-09T09:27:05.290Z,-957.74
2019-03-09T09:28:05.598Z,-969.54
2019-03-09T09:29:05.874Z,-970.82
2019-03-09T09:30:06.188Z,-969.10
2019-03-09T09:31:06.424Z,-960.65
2019-03-09T09:32:06.726Z,-956.13
2019-03-09T09:33:07.035Z,-959.74
2019-03-09T09:34:07.294Z,-961.64
2019-03-09T09:35:07.603Z,-975.06
2019-03-09T09:36:07.849Z,-961.93
2019-03-09T09:37:08.144Z,-939.21
2019-03-09T09:38:08.508Z,-951.77
2019-03-09T09:39:08.789Z,-977.99
2019-03-09T09:40:09.056Z,-974.09
2019-03-09T09:41:09.302Z,-976.95
2019-03-09T09:42:09.581Z,-975.11
2019-03-09T09:43:09.921Z,-974.65
2019-03-09T09:44:10.171Z,-985.86
2019-03-09T09:45:10.468Z,-984.37
2019-03-09T09:46:10.785Z,-991.92
2019-03-09T09:47:11.129Z,-981.46
2019-03-09T09:48:11.329Z,-985.61
2019-03-09T09:49:11.586Z,-984.95
2019-03-09T09:50:11.885Z,-987.03
2019-03-09T09:51:12.153Z,-977.79
2019-03-09T09:52:12.415Z,-971.43
2019-03-09T09:53:12.727Z,-971.29
2019-03-09T09:54:13.014Z,-979.02
2019-03-09T09:55:13.596Z,-985.82
2019-03-09T09:56:13.567Z,-971.66
2019-03-09T09:57:13.837Z,-981.63
2019-03-09T09:58:14.163Z,-971.97
2019-03-09T09:59:14.619Z,-965.34
2019-03-09T10:00:14.737Z,-979.16
2019-03-09T10:01:15.012Z,-972.77
2019-03-09T10:02:15.289Z,-970.25
2019-03-09T10:03:15.634Z,-982.89
2019-03-09T10:04:15.845Z,-970.52
2019-03-09T10:05:16.161Z,-980.31
2019-03-09T10:06:16.427Z,-982.81
2019-03-09T10:07:16.722Z,-987.98
2019-03-09T10:08:17.023Z,-982.91
2019-03-09T10:09:17.280Z,-969.12
2019-03-09T10:10:17.565Z,-970.36
2019-03-09T10:11:17.906Z,-981.97
2019-03-09T10:12:18.110Z,-984.67
2019-03-09T10:13:18.428Z,-983.74
2019-03-09T10:14:18.686Z,-981.19
2019-03-09T10:15:19.034Z,-980.07
2019-03-09T10:16:19.256Z,-982.59
2019-03-09T10:17:19.564Z,-921.87
2019-03-09T10:18:20.138Z,-975.86
2019-03-09T10:19:20.144Z,-986.79
2019-03-09T10:20:20.509Z,-985.01
2019-03-09T10:21:20.676Z,-986.69
2019-03-09T10:22:20.972Z,-982.42
2019-03-09T10:23:21.286Z,-981.63
2019-03-09T10:24:21.544Z,-976.01
2019-03-09T10:25:21.828Z,-979.97
2019-03-09T10:26:24.653Z,-990.00
2019-03-09T10:27:22.434Z,-981.84
2019-03-09T10:28:22.838Z,-988.94
2019-03-09T10:29:22.991Z,-975.27
2019-03-09T10:30:23.249Z,-986.79
2019-03-09T10:31:23.543Z,-974.96
2019-03-09T10:32:23.853Z,-973.77
2019-03-09T10:33:24.350Z,-980.17
2019-03-09T10:34:24.431Z,-980.19
2019-03-09T10:35:24.712Z,-984.38
2019-03-09T10:36:25.107Z,-977.40
2019-03-09T10:37:25.270Z,-971.72
2019-03-09T10:38:27.874Z,-979.82
2019-03-09T10:39:25.854Z,-981.06
2019-03-09T10:40:26.143Z,-977.56
2019-03-09T10:41:26.445Z,-984.68
2019-03-09T10:42:26.710Z,-978.01
2019-03-09T10:43:27.014Z,-973.46
2019-03-09T10:44:27.332Z,-977.84
2019-03-09T10:45:27.553Z,-974.01
2019-03-09T10:46:27.875Z,-973.10
2019-03-09T10:47:28.126Z,-973.37
2019-03-09T10:48:28.450Z,-966.50
2019-03-09T10:49:28.794Z,-974.28
2019-03-09T10:50:28.991Z,-976.69
2019-03-09T10:51:29.310Z,-966.71
2019-03-09T10:52:29.587Z,-969.69
2019-03-09T10:53:29.972Z,-976.97
2019-03-09T10:54:35.793Z,-915.45
2019-03-09T10:55:31.408Z,-965.13
2019-03-09T10:56:30.695Z,-963.99
2019-03-09T10:57:30.977Z,-959.03
2019-03-09T10:58:31.278Z,-974.38
2019-03-09T10:59:31.579Z,-965.29
2019-03-09T11:00:31.827Z,-964.96
2019-03-09T11:01:32.268Z,-970.67
2019-03-09T11:02:32.403Z,-962.27
2019-03-09T11:03:32.704Z,-965.18
2019-03-09T11:04:32.971Z,-963.57
2019-03-09T11:05:33.239Z,-961.39
2019-03-09T11:06:33.553Z,-958.87
2019-03-09T11:07:33.819Z,-960.40
2019-03-09T11:08:34.147Z,-958.73
2019-03-09T11:09:34.440Z,-963.72
2019-03-09T11:10:34.662Z,-959.49
2019-03-09T11:11:35.055Z,-968.70
2019-03-09T11:12:35.261Z,-968.94
2019-03-09T11:13:35.583Z,-967.28
2019-03-09T11:14:35.816Z,-961.07
2019-03-09T11:15:37.627Z,-965.30
2019-03-09T11:16:36.388Z,-955.83
2019-03-09T11:17:36.744Z,-965.07
2019-03-09T11:18:36.997Z,-949.04
2019-03-09T11:19:37.226Z,-956.85
2019-03-09T11:20:37.516Z,-951.21
2019-03-09T11:21:37.801Z,-960.11
2019-03-09T11:22:38.062Z,-960.80
2019-03-09T11:23:38.460Z,-954.50
2019-03-09T11:24:38.639Z,-955.95
2019-03-09T11:25:38.953Z,-947.30
2019-03-09T11:26:39.230Z,-952.27
2019-03-09T11:27:39.491Z,-946.31
2019-03-09T11:28:39.883Z,-961.08
2019-03-09T11:29:40.077Z,-945.09
2019-03-09T11:30:40.362Z,-944.95
2019-03-09T11:31:40.662Z,-949.05
2019-03-09T11:32:40.928Z,-945.96
2019-03-09T11:33:41.332Z,-942.45
2019-03-09T11:34:41.672Z,-945.98
2019-03-09T11:35:41.799Z,-947.13
2019-03-09T11:36:42.113Z,-948.78
2019-03-09T11:37:42.370Z,-950.99
2019-03-09T11:38:42.637Z,-949.26
2019-03-09T11:39:42.964Z,-948.66
2019-03-09T11:40:43.250Z,-946.90
2019-03-09T11:41:43.561Z,-949.05
2019-03-09T11:42:43.901Z,-947.17
2019-03-09T11:43:44.089Z,-943.70
2019-03-09T11:44:44.413Z,-949.65
2019-03-09T11:45:44.678Z,-940.64
2019-03-09T11:46:44.980Z,-947.06
2019-03-09T11:47:45.252Z,-956.93
2019-03-09T11:48:45.518Z,-950.46
2019-03-09T11:49:45.827Z,-952.08
2019-03-09T11:50:46.161Z,-946.56
2019-03-09T11:51:46.390Z,-950.06
2019-03-09T11:52:46.655Z,-958.73
2019-03-09T11:53:46.939Z,-958.55
2019-03-09T11:54:47.233Z,-952.02
2019-03-09T11:55:47.492Z,-961.60
2019-03-09T11:56:48.033Z,-957.94
2019-03-09T11:57:48.074Z,-949.97
2019-03-09T11:58:48.445Z,-946.58
2019-03-09T11:59:48.649Z,-954.46
2019-03-09T12:00:48.914Z,-963.99
2019-03-09T12:01:49.199Z,-957.30
2019-03-09T12:02:49.479Z,-954.15
2019-03-09T12:03:49.761Z,-961.69
2019-03-09T12:04:50.075Z,-963.89
2019-03-09T12:05:50.334Z,-966.37
2019-03-09T12:06:50.663Z,-953.87
2019-03-09T12:07:50.913Z,-961.34
2019-03-09T12:08:51.182Z,-961.42
2019-03-09T12:09:51.512Z,-957.90